Time;durP1;ratioP1;P1;durP2;ratioP2;P2;SDS_P1;SDS_P2;PMS_P1;PMS_P2;Temp;Humidity;BMP_temperature;BMP_pressure;BME280_temperature;BME280_humidity;BME280_pressure;Samples;Min_cycle;Max_cycle;Signal;HPM_P1;HPM_P2
2024/04/11 00:01:17;;;;;;;;;;;;;;;8.19;71.45;102430.13;5513219;26;19935;-70
2024/04/11 00:03:43;;;;;;;;;;;;;;;8.17;72.11;102432.09;5513248;26;19928;-70
2024/04/11 00:06:08;;;;;;;;;;;;;;;8.12;72.15;102429.00;5514973;25;19927;-71
2024/04/11 00:08:33;;;;;;;;;;;;;;;8.13;72.24;102441.41;5512717;26;20562;-71
2024/04/11 00:10:58;;;;;;;;;;;;;;;8.14;72.41;102432.38;5514335;25;20461;-71
2024/04/11 00:13:24;;;;;;;;;;;;;;;8.14;72.60;102435.03;5514370;26;20367;-71
2024/04/11 00:15:56;;;;;;;;;;;;;;;8.13;72.80;102446.75;5515308;25;20243;-71
2024/04/11 00:18:23;;;;;;;;;;;;;;;8.13;73.03;102436.03;5554452;25;20080;-71
2024/04/11 00:20:48;;;;;;;;;;;;;;;8.11;73.15;102446.09;5521690;25;19927;-71
2024/04/11 00:23:13;;;;;;;;;;;;;;;8.09;73.36;102440.00;5513539;25;19935;-71
2024/04/11 00:25:40;;;;;;;;;;;;;;;8.08;73.90;102446.38;5513722;26;19953;-71
2024/04/11 00:28:05;;;;;;;;;;;;;;;8.04;74.38;102445.78;5513808;25;19964;-71
2024/04/11 00:30:31;;;;;;;;;;;;;;;8.05;74.47;102444.78;5512072;25;19935;-71
2024/04/11 00:32:58;;;;;;;;;;;;;;;8.06;74.50;102430.38;5513672;25;19935;-71
2024/04/11 00:35:23;;;;;;;;;;;;;;;8.10;74.46;102433.66;5514292;25;19931;-70
2024/04/11 00:37:49;;;;;;;;;;;;;;;8.08;74.59;102430.28;5513401;26;19928;-71
2024/04/11 00:40:14;;;;;;;;;;;;;;;8.11;74.67;102424.63;5513790;25;19936;-71
2024/04/11 00:42:39;;;;;;;;;;;;;;;8.14;74.53;102427.88;5514589;25;19935;-71
2024/04/11 00:45:07;;;;;;;;;;;;;;;8.16;74.24;102425.88;5512434;25;19935;-71
2024/04/11 00:47:33;;;;;;;;;;;;;;;8.24;74.61;102422.50;5513318;26;19963;-71
2024/04/11 00:49:58;;;;;;;;;;;;;;;8.31;73.92;102428.97;5513385;25;19927;-71
2024/04/11 00:52:24;;;;;;;;;;;;;;;8.33;74.11;102432.34;5481561;26;19960;-71
2024/04/11 00:54:49;;;;;;;;;;;;;;;8.38;73.81;102426.59;5512891;26;20336;-71
2024/04/11 00:57:15;;;;;;;;;;;;;;;8.42;73.94;102422.59;5512906;26;20501;-71
2024/04/11 00:59:40;;;;;;;;;;;;;;;8.47;73.97;102424.88;5506060;25;20104;-71
2024/04/11 01:02:06;;;;;;;;;;;;;;;8.52;73.90;102422.63;5512347;26;19959;-71
2024/04/11 01:04:33;;;;;;;;;;;;;;;8.59;73.55;102423.75;5512764;26;19928;-71
2024/04/11 01:07:08;;;;;;;;;;;;;;;8.67;73.15;102423.00;5481569;26;19951;-71
2024/04/11 01:09:43;;;;;;;;;;;;;;;8.72;72.63;102436.00;5512664;25;19935;-71
2024/04/11 01:12:12;;;;;;;;;;;;;;;8.82;72.39;102439.50;5512914;25;19960;-71
2024/04/11 01:14:37;;;;;;;;;;;;;;;8.90;72.15;102436.94;5513685;26;20374;-71
2024/04/11 01:17:02;;;;;;;;;;;;;;;8.94;72.50;102435.66;5511511;25;19928;-72
2024/04/11 01:19:27;;;;;;;;;;;;;;;9.00;72.45;102436.91;5512242;25;19959;-71
2024/04/11 01:21:53;;;;;;;;;;;;;;;9.03;72.47;102433.06;5513457;25;19928;-71
2024/04/11 01:24:18;;;;;;;;;;;;;;;9.07;72.23;102431.78;5512331;26;19936;-71
2024/04/11 01:26:43;;;;;;;;;;;;;;;9.07;71.95;102439.84;5512268;26;19927;-71
2024/04/11 01:29:10;;;;;;;;;;;;;;;9.10;72.15;102434.16;5513564;25;19935;-70
2024/04/11 01:31:35;;;;;;;;;;;;;;;9.14;71.95;102429.34;5513101;26;19939;-71
2024/04/11 01:34:01;;;;;;;;;;;;;;;9.14;72.31;102440.94;5512577;25;20362;-71
2024/04/11 01:36:26;;;;;;;;;;;;;;;9.11;72.08;102435.88;5513288;25;19939;-71
2024/04/11 01:38:51;;;;;;;;;;;;;;;9.14;72.32;102438.25;5512144;26;19971;-71
2024/04/11 01:41:16;;;;;;;;;;;;;;;9.15;72.96;102428.34;5510928;26;19936;-71
2024/04/11 01:43:42;;;;;;;;;;;;;;;9.16;72.35;102432.72;5513691;26;19939;-71
2024/04/11 01:46:07;;;;;;;;;;;;;;;9.13;72.18;102428.50;5511864;26;19928;-71
2024/04/11 01:48:35;;;;;;;;;;;;;;;9.09;72.49;102421.72;5512579;26;19939;-71
2024/04/11 01:51:00;;;;;;;;;;;;;;;9.08;72.86;102430.78;5513777;25;19934;-71
2024/04/11 01:53:26;;;;;;;;;;;;;;;9.08;73.40;102430.78;5523509;25;19928;-71
2024/04/11 01:55:51;;;;;;;;;;;;;;;9.06;73.57;102416.66;5511551;25;19938;-71
2024/04/11 01:58:17;;;;;;;;;;;;;;;9.06;74.02;102417.50;5514118;26;19935;-71
2024/04/11 02:00:43;;;;;;;;;;;;;;;9.13;73.46;102411.53;5510762;26;19999;-71
2024/04/11 02:03:08;;;;;;;;;;;;;;;9.16;72.73;102405.84;5511927;26;19939;-71
2024/04/11 02:05:34;;;;;;;;;;;;;;;9.15;72.41;102405.03;5513639;25;20009;-70
2024/04/11 02:08:01;;;;;;;;;;;;;;;9.19;72.18;102406.41;5479061;26;19927;-70
2024/04/11 02:10:27;;;;;;;;;;;;;;;9.23;72.41;102401.59;5511607;26;19927;-71
2024/04/11 02:12:56;;;;;;;;;;;;;;;9.24;71.50;102396.06;5513668;26;19938;-71
2024/04/11 02:15:21;;;;;;;;;;;;;;;9.24;71.86;102401.44;5511324;26;19943;-72
2024/04/11 02:17:46;;;;;;;;;;;;;;;9.23;71.28;102391.66;5511944;25;19928;-72
2024/04/11 02:20:13;;;;;;;;;;;;;;;9.22;71.96;102403.41;5512895;26;19942;-72
2024/04/11 02:22:38;;;;;;;;;;;;;;;9.26;71.75;102395.91;5510727;25;19977;-73
2024/04/11 02:25:07;;;;;;;;;;;;;;;9.28;71.88;102401.13;5512511;26;19956;-70
2024/04/11 02:27:32;;;;;;;;;;;;;;;9.30;71.44;102412.59;5518183;26;19971;-72
2024/04/11 02:29:59;;;;;;;;;;;;;;;9.32;71.43;102406.03;5484112;26;19931;-72
2024/04/11 02:32:25;;;;;;;;;;;;;;;9.30;71.59;102420.66;5516157;26;20003;-71
2024/04/11 02:34:51;;;;;;;;;;;;;;;9.33;71.10;102423.03;5516748;26;19960;-71
2024/04/11 02:37:16;;;;;;;;;;;;;;;9.35;70.58;102419.19;5514198;25;20244;-72
2024/04/11 02:39:41;;;;;;;;;;;;;;;9.38;70.24;102416.22;5513345;25;19943;-72
2024/04/11 02:42:07;;;;;;;;;;;;;;;9.39;70.44;102414.34;5516634;26;19931;-72
2024/04/11 02:44:35;;;;;;;;;;;;;;;9.40;70.44;102405.28;5514500;26;19934;-72
2024/04/11 02:47:01;;;;;;;;;;;;;;;9.41;70.37;102401.63;5515741;25;19940;-72
2024/04/11 02:49:26;;;;;;;;;;;;;;;9.41;71.04;102398.94;5514989;26;19995;-72
2024/04/11 02:51:53;;;;;;;;;;;;;;;9.40;70.70;102402.59;5515296;26;19934;-72
2024/04/11 02:54:18;;;;;;;;;;;;;;;9.42;70.74;102394.41;5514625;25;19928;-72
2024/04/11 02:56:46;;;;;;;;;;;;;;;9.41;71.09;102396.25;5514724;26;19939;-72
2024/04/11 02:59:12;;;;;;;;;;;;;;;9.41;71.06;102385.50;5515858;26;19934;-72
2024/04/11 03:01:37;;;;;;;;;;;;;;;9.42;70.62;102395.25;5515780;25;20258;-72
2024/04/11 03:04:03;;;;;;;;;;;;;;;9.43;70.83;102410.38;5514870;25;19999;-72
2024/04/11 03:06:28;;;;;;;;;;;;;;;9.44;71.40;102404.00;5515977;25;19995;-71
2024/04/11 03:08:56;;;;;;;;;;;;;;;9.45;70.97;102407.53;5513589;26;19947;-71
2024/04/11 03:11:23;;;;;;;;;;;;;;;9.45;70.89;102400.31;5514932;25;19940;-70
2024/04/11 03:13:55;;;;;;;;;;;;;;;9.45;71.30;102383.34;5515174;26;19935;-71
2024/04/11 03:16:20;;;;;;;;;;;;;;;9.42;71.21;102380.97;5514720;26;20259;-71
2024/04/11 03:18:46;;;;;;;;;;;;;;;9.44;71.32;102381.66;5515325;26;19928;-71
2024/04/11 03:21:11;;;;;;;;;;;;;;;9.45;70.79;102386.88;5516069;25;19928;-70
2024/04/11 03:23:36;;;;;;;;;;;;;;;9.49;70.90;102398.16;5514804;26;19944;-72
2024/04/11 03:26:01;;;;;;;;;;;;;;;9.49;71.15;102396.34;5514441;26;19928;-71
2024/04/11 03:28:27;;;;;;;;;;;;;;;9.49;70.89;102396.34;5515719;26;19934;-71
2024/04/11 03:31:04;;;;;;;;;;;;;;;9.49;70.84;102380.22;5514617;26;19927;-71
2024/04/11 03:33:29;;;;;;;;;;;;;;;9.48;70.88;102383.91;5508772;26;19928;-71
2024/04/11 03:35:58;;;;;;;;;;;;;;;9.48;71.44;102378.53;5513810;25;20326;-71
2024/04/11 03:38:27;;;;;;;;;;;;;;;9.47;71.47;102381.34;5513438;26;20278;-71
2024/04/11 03:40:58;;;;;;;;;;;;;;;9.47;71.37;102390.28;5514115;26;19931;-71
2024/04/11 03:43:24;;;;;;;;;;;;;;;9.49;71.42;102380.22;5514443;26;19939;-72
2024/04/11 03:45:49;;;;;;;;;;;;;;;9.47;71.85;102381.34;5513712;25;19961;-71
2024/04/11 03:48:14;;;;;;;;;;;;;;;9.47;72.05;102376.81;5514524;26;19927;-71
2024/04/11 03:50:39;;;;;;;;;;;;;;;9.49;71.42;102376.66;5515620;25;19935;-71
2024/04/11 03:53:05;;;;;;;;;;;;;;;9.53;71.31;102380.75;5513445;25;19931;-71
2024/04/11 03:55:31;;;;;;;;;;;;;;;9.53;71.13;102370.00;5514565;26;19972;-71
2024/04/11 03:57:58;;;;;;;;;;;;;;;9.52;71.77;102369.16;5514759;26;19928;-72
2024/04/11 04:00:24;;;;;;;;;;;;;;;9.52;72.10;102363.78;5513283;26;20375;-71
2024/04/11 04:02:50;;;;;;;;;;;;;;;9.48;71.35;102351.63;5514058;25;19927;-71
2024/04/11 04:05:15;;;;;;;;;;;;;;;9.50;71.85;102363.09;5514443;26;19935;-72
2024/04/11 04:07:41;;;;;;;;;;;;;;;9.48;71.60;102361.53;5512940;26;19934;-71
2024/04/11 04:10:06;;;;;;;;;;;;;;;9.47;72.29;102357.16;5514116;25;20215;-71
2024/04/11 04:12:32;;;;;;;;;;;;;;;9.45;72.73;102357.31;5515146;26;19932;-71
2024/04/11 04:14:57;;;;;;;;;;;;;;;9.41;72.52;102366.66;5512676;25;20381;-71
2024/04/11 04:17:23;;;;;;;;;;;;;;;9.38;72.94;102361.59;5513454;26;19927;-71
2024/04/11 04:19:49;;;;;;;;;;;;;;;9.36;73.30;102363.59;5515262;26;19998;-71
2024/04/11 04:22:17;;;;;;;;;;;;;;;9.33;73.72;102363.91;5512966;26;19940;-71
2024/04/11 04:24:42;;;;;;;;;;;;;;;9.32;73.90;102362.22;5514442;26;19935;-71
2024/04/11 04:27:08;;;;;;;;;;;;;;;9.29;74.14;102366.03;5514880;26;19927;-71
2024/04/11 04:29:37;;;;;;;;;;;;;;;9.23;73.93;102363.97;5512602;26;19928;-70
2024/04/11 04:32:03;;;;;;;;;;;;;;;9.21;74.43;102365.97;5513259;25;19927;-71
2024/04/11 04:34:28;;;;;;;;;;;;;;;9.22;74.46;102363.09;5518520;25;19935;-72
2024/04/11 04:36:55;;;;;;;;;;;;;;;9.27;74.12;102364.50;5515887;25;19978;-71
2024/04/11 04:39:30;;;;;;;;;;;;;;;9.29;74.50;102359.81;5513883;26;20321;-71
2024/04/11 04:41:55;;;;;;;;;;;;;;;9.22;74.25;102352.34;5514451;25;19935;-71
2024/04/11 04:44:22;;;;;;;;;;;;;;;9.25;74.23;102338.63;5511946;26;19927;-71
2024/04/11 04:46:47;;;;;;;;;;;;;;;9.28;73.97;102342.00;5512980;25;19927;-70
2024/04/11 04:49:14;;;;;;;;;;;;;;;9.28;74.85;102340.16;5514682;26;19928;-70
2024/04/11 04:51:39;;;;;;;;;;;;;;;9.26;73.83;102331.44;5495890;26;20385;-72
2024/04/11 04:54:06;;;;;;;;;;;;;;;9.28;73.86;102332.09;5513566;25;19939;-71
2024/04/11 04:56:34;;;;;;;;;;;;;;;9.29;73.89;102336.47;5513527;26;19935;-72
2024/04/11 04:59:02;;;;;;;;;;;;;;;9.31;74.56;102341.72;5513610;26;19940;-71
2024/04/11 05:01:28;;;;;;;;;;;;;;;9.29;74.56;102341.00;5514388;26;19928;-71
2024/04/11 05:03:55;;;;;;;;;;;;;;;9.30;74.88;102350.78;5515396;25;19935;-70
2024/04/11 05:06:20;;;;;;;;;;;;;;;9.31;75.23;102339.03;5513560;26;19996;-71
2024/04/11 05:08:46;;;;;;;;;;;;;;;9.33;75.11;102348.63;5513703;26;19939;-71
2024/04/11 05:11:11;;;;;;;;;;;;;;;9.27;75.28;102345.69;5513720;25;20307;-70
2024/04/11 05:13:43;;;;;;;;;;;;;;;9.31;75.06;102347.09;5514148;25;20370;-71
2024/04/11 05:16:09;;;;;;;;;;;;;;;9.35;74.83;102356.53;5515015;26;20359;-71
2024/04/11 05:18:38;;;;;;;;;;;;;;;9.33;75.37;102366.59;5526569;26;19934;-71
2024/04/11 05:21:07;;;;;;;;;;;;;;;9.34;76.06;102370.97;5530739;26;19928;-71
2024/04/11 05:23:32;;;;;;;;;;;;;;;9.36;75.62;102371.66;5530324;25;19946;-71
2024/04/11 05:25:58;;;;;;;;;;;;;;;9.38;75.99;102366.97;5528371;25;19927;-71
2024/04/11 05:28:25;;;;;;;;;;;;;;;9.40;75.92;102370.34;5521841;25;19928;-71
2024/04/11 05:30:51;;;;;;;;;;;;;;;9.46;75.14;102375.13;5516606;26;21415;-71
2024/04/11 05:33:19;;;;;;;;;;;;;;;9.46;75.53;102369.75;5515936;26;20556;-71
2024/04/11 05:35:44;;;;;;;;;;;;;;;9.47;75.70;102371.44;5515601;25;19934;-71
2024/04/11 05:38:10;;;;;;;;;;;;;;;9.48;76.73;102375.84;5514912;26;19928;-71
2024/04/11 05:40:36;;;;;;;;;;;;;;;9.46;77.31;102379.66;5515421;25;19927;-71
2024/04/11 05:43:02;;;;;;;;;;;;;;;9.44;78.22;102384.34;5516103;25;19943;-71
2024/04/11 05:45:33;;;;;;;;;;;;;;;9.42;78.60;102402.47;5513933;26;19995;-71
2024/04/11 05:47:59;;;;;;;;;;;;;;;9.38;79.69;102399.22;5515236;26;19947;-72
2024/04/11 05:50:24;;;;;;;;;;;;;;;9.35;80.33;102399.56;5514002;25;19928;-72
2024/04/11 05:52:49;;;;;;;;;;;;;;;9.38;80.34;102407.28;5512802;26;19939;-73
2024/04/11 05:55:15;;;;;;;;;;;;;;;9.32;80.34;102415.97;5513684;26;20352;-76
2024/04/11 05:57:44;;;;;;;;;;;;;;;9.36;81.73;102414.66;5515042;26;19928;-71
2024/04/11 06:00:11;;;;;;;;;;;;;;;9.32;82.39;102415.97;5513001;25;20336;-72
2024/04/11 06:02:40;;;;;;;;;;;;;;;9.33;82.10;102428.41;5517001;26;19931;-76
2024/04/11 06:05:06;;;;;;;;;;;;;;;9.31;83.45;102430.41;5518421;25;19935;-70
2024/04/11 06:07:31;;;;;;;;;;;;;;;9.30;83.73;102428.69;5514571;25;19927;-73
2024/04/11 06:09:58;;;;;;;;;;;;;;;9.30;83.85;102434.91;5516363;25;19932;-72
2024/04/11 06:12:23;;;;;;;;;;;;;;;9.25;84.75;102434.53;5517387;25;19927;-73
2024/04/11 06:14:48;;;;;;;;;;;;;;;9.40;83.26;102437.56;5515465;25;19934;-72
2024/04/11 06:17:14;;;;;;;;;;;;;;;9.50;83.38;102432.13;5511748;26;20327;-72
2024/04/11 06:19:39;;;;;;;;;;;;;;;9.49;83.14;102433.97;5513288;26;20268;-71
2024/04/11 06:22:06;;;;;;;;;;;;;;;9.52;83.29;102431.00;5512724;25;20243;-71
2024/04/11 06:24:32;;;;;;;;;;;;;;;9.58;83.70;102428.66;5513318;25;19935;-72
2024/04/11 06:26:57;;;;;;;;;;;;;;;9.62;82.82;102436.28;5563688;25;20295;-72
2024/04/11 06:29:24;;;;;;;;;;;;;;;9.65;84.10;102440.53;5500861;26;19932;-73
2024/04/11 06:31:49;;;;;;;;;;;;;;;9.73;83.37;102445.97;5506242;26;19928;-72
2024/04/11 06:34:14;;;;;;;;;;;;;;;9.78;82.94;102443.69;5515086;26;19960;-73
2024/04/11 06:36:39;;;;;;;;;;;;;;;9.85;83.11;102449.28;5513105;25;19939;-72
2024/04/11 06:39:09;;;;;;;;;;;;;;;9.84;82.78;102458.38;5513043;26;19994;-72
2024/04/11 06:41:36;;;;;;;;;;;;;;;9.81;82.86;102454.16;5513482;25;19928;-73
2024/04/11 06:44:01;;;;;;;;;;;;;;;9.92;83.60;102449.53;5513398;25;19938;-73
2024/04/11 06:46:27;;;;;;;;;;;;;;;9.78;82.92;102454.44;5508952;26;20525;-72
2024/04/11 06:48:57;;;;;;;;;;;;;;;9.90;83.13;102462.28;5511240;25;19930;-73
2024/04/11 06:51:22;;;;;;;;;;;;;;;9.98;83.30;102465.06;5528905;25;20325;-72
2024/04/11 06:53:48;;;;;;;;;;;;;;;10.05;83.14;102476.06;5521920;25;19928;-72
2024/04/11 06:56:17;;;;;;;;;;;;;;;10.11;82.56;102470.06;5536859;25;19926;-71
2024/04/11 06:58:44;;;;;;;;;;;;;;;10.16;83.00;102474.00;5581530;25;20346;-72
2024/04/11 07:01:13;;;;;;;;;;;;;;;10.20;83.05;102473.69;5559555;25;19926;-73
2024/04/11 07:03:40;;;;;;;;;;;;;;;10.19;83.63;102472.81;5505431;25;20359;-72
2024/04/11 07:06:21;;;;;;;;;;;;;;;10.20;82.92;102474.53;5512956;26;20348;-73
2024/04/11 07:08:47;;;;;;;;;;;;;;;10.22;83.29;102474.38;5515200;26;19928;-72
2024/04/11 07:11:32;;;;;;;;;;;;;;;10.18;84.43;102481.06;5513593;26;20059;-72
2024/04/11 07:14:05;;;;;;;;;;;;;;;10.12;85.51;102477.97;5512911;26;19961;-72
2024/04/11 07:16:32;;;;;;;;;;;;;;;10.07;86.12;102490.22;5512704;25;19931;-72
2024/04/11 07:19:02;;;;;;;;;;;;;;;10.01;87.33;102497.06;5515975;26;19992;-72
2024/04/11 07:21:30;;;;;;;;;;;;;;;10.01;87.03;102484.44;5513043;25;19935;-72
2024/04/11 07:23:57;;;;;;;;;;;;;;;9.98;88.88;102486.59;5512219;26;19976;-72
2024/04/11 07:26:23;;;;;;;;;;;;;;;9.97;88.66;102479.50;5514002;26;20261;-72
2024/04/11 07:28:49;;;;;;;;;;;;;;;9.97;90.39;102474.97;5513864;25;19995;-72
2024/04/11 07:31:15;;;;;;;;;;;;;;;9.93;90.81;102487.06;5512124;25;20018;-72
2024/04/11 07:33:40;;;;;;;;;;;;;;;9.96;91.03;102478.69;5513371;26;19928;-72
2024/04/11 07:36:07;;;;;;;;;;;;;;;9.93;92.01;102486.19;5512255;25;20469;-72
2024/04/11 07:38:34;;;;;;;;;;;;;;;9.81;91.85;102488.25;5513331;26;19939;-72
2024/04/11 07:40:59;;;;;;;;;;;;;;;9.83;92.74;102499.72;5515227;25;19938;-72
2024/04/11 07:43:30;;;;;;;;;;;;;;;9.79;93.86;102499.16;5514019;25;20393;-72
2024/04/11 07:45:59;;;;;;;;;;;;;;;9.71;95.84;102501.75;5512291;25;19928;-72
2024/04/11 07:48:26;;;;;;;;;;;;;;;9.77;96.47;102501.16;5513185;26;19927;-72
2024/04/11 07:50:51;;;;;;;;;;;;;;;9.77;96.89;102505.72;5512499;25;19927;-72
2024/04/11 07:53:16;;;;;;;;;;;;;;;9.79;98.45;102495.66;5511424;25;19934;-72
2024/04/11 07:55:43;;;;;;;;;;;;;;;9.72;99.23;102503.44;5512912;25;19928;-73
2024/04/11 07:58:09;;;;;;;;;;;;;;;9.76;99.99;102498.63;5513176;26;19998;-72
2024/04/11 08:00:47;;;;;;;;;;;;;;;9.72;100.00;102506.13;5511992;25;19941;-72
2024/04/11 08:03:20;;;;;;;;;;;;;;;9.76;100.00;102520.16;5513671;26;19927;-72
2024/04/11 08:05:45;;;;;;;;;;;;;;;9.79;100.00;102520.69;5511866;25;20292;-72
2024/04/11 08:08:19;;;;;;;;;;;;;;;9.78;100.00;102529.75;5511448;25;19928;-72
2024/04/11 08:10:45;;;;;;;;;;;;;;;9.78;100.00;102529.75;5512672;25;19947;-72
2024/04/11 08:13:10;;;;;;;;;;;;;;;9.80;100.00;102532.28;5517248;25;19943;-72
2024/04/11 08:15:36;;;;;;;;;;;;;;;9.82;100.00;102533.84;5511789;26;19935;-72
2024/04/11 08:18:03;;;;;;;;;;;;;;;9.85;100.00;102538.94;5512735;26;19928;-72
2024/04/11 08:20:29;;;;;;;;;;;;;;;9.86;100.00;102532.56;5511094;26;19927;-72
2024/04/11 08:22:55;;;;;;;;;;;;;;;9.90;100.00;102527.72;5511885;26;19935;-72
2024/04/11 08:25:20;;;;;;;;;;;;;;;9.97;100.00;102533.31;5512958;26;20039;-72
2024/04/11 08:27:48;;;;;;;;;;;;;;;10.03;100.00;102530.03;5510792;25;19928;-72
2024/04/11 08:30:17;;;;;;;;;;;;;;;10.03;100.00;102521.97;5511193;26;19952;-73
2024/04/11 08:32:47;;;;;;;;;;;;;;;10.01;100.00;102526.66;5510936;26;20258;-73
2024/04/11 08:35:13;;;;;;;;;;;;;;;10.06;100.00;102536.94;5511405;26;20016;-73
2024/04/11 08:37:38;;;;;;;;;;;;;;;10.14;100.00;102531.66;5511581;26;19928;-72
2024/04/11 08:40:10;;;;;;;;;;;;;;;10.21;100.00;102545.34;5513217;25;19928;-72
2024/04/11 08:42:36;;;;;;;;;;;;;;;10.27;100.00;102553.66;5511702;25;19927;-72
2024/04/11 08:45:06;;;;;;;;;;;;;;;10.28;100.00;102558.06;5473121;26;20339;-73
2024/04/11 08:47:31;;;;;;;;;;;;;;;10.35;100.00;102563.66;5445533;26;20027;-72
2024/04/11 08:49:59;;;;;;;;;;;;;;;10.31;100.00;102557.75;5461729;26;20327;-73
2024/04/11 08:52:27;;;;;;;;;;;;;;;10.37;100.00;102556.28;5516390;26;20235;-72
2024/04/11 08:54:52;;;;;;;;;;;;;;;10.43;100.00;102566.44;5526249;26;19939;-72
2024/04/11 08:57:17;;;;;;;;;;;;;;;10.49;100.00;102574.91;5513153;26;19928;-72
2024/04/11 08:59:45;;;;;;;;;;;;;;;10.50;100.00;102568.53;5512205;25;20363;-72
2024/04/11 09:02:11;;;;;;;;;;;;;;;10.48;100.00;102576.78;5480912;26;19935;-72
2024/04/11 09:04:36;;;;;;;;;;;;;;;10.49;100.00;102572.22;5511698;26;19934;-72
2024/04/11 09:07:02;;;;;;;;;;;;;;;10.62;100.00;102572.69;5510133;25;20243;-73
2024/04/11 09:09:27;;;;;;;;;;;;;;;10.61;100.00;102568.28;5519481;25;19927;-72
2024/04/11 09:11:52;;;;;;;;;;;;;;;10.84;100.00;102567.81;5515871;25;19927;-72
2024/04/11 09:14:18;;;;;;;;;;;;;;;10.95;100.00;102583.72;5511224;26;19927;-72
2024/04/11 09:16:43;;;;;;;;;;;;;;;11.06;100.00;102593.41;5523386;25;19932;-72
2024/04/11 09:19:09;;;;;;;;;;;;;;;11.20;100.00;102592.00;5537929;25;20321;-72
2024/04/11 09:23:51;;;;;;;7.53;2.35;;;;;;;11.23;100.00;102591.69;5394133;26;20376;-72
2024/04/11 09:26:19;;;;;;;8.18;2.67;;;;;;;11.27;100.00;102598.47;5406156;26;20082;-72
2024/04/11 09:28:45;;;;;;;6.75;2.40;;;;;;;11.52;100.00;102596.75;5392920;26;20429;-72
2024/04/11 09:31:11;;;;;;;6.90;2.53;;;;;;;11.55;99.99;102614.47;5393573;26;20004;-72
2024/04/11 09:33:39;;;;;;;6.53;2.53;;;;;;;11.67;98.88;102606.94;5394330;26;20000;-72
2024/04/11 09:36:09;;;;;;;7.22;2.90;;;;;;;11.62;100.00;102612.81;5393564;26;20082;-72
2024/04/11 09:44:03;;;;;;;7.55;2.72;;;;;;;11.62;98.79;102610.13;5519220;25;1270768;-72
2024/04/11 09:46:29;;;;;;;6.80;2.88;;;;;;;11.65;100.00;102608.94;5503445;25;20078;-72
2024/04/11 09:48:54;;;;;;;11.00;4.47;;;;;;;11.59;100.00;102615.84;5529846;25;20038;-72
2024/04/11 09:51:20;;;;;;;7.22;2.80;;;;;;;11.84;99.26;102613.25;5494631;25;19997;-72
2024/04/11 09:53:46;;;;;;;7.15;3.15;;;;;;;11.95;97.90;102618.38;5538240;25;20017;-72
2024/04/11 09:56:13;;;;;;;6.38;3.17;;;;;;;12.01;97.87;102613.34;5539863;25;19997;-73
2024/04/11 09:58:42;;;;;;;6.80;3.00;;;;;;;11.85;100.00;102619.50;5539927;25;20321;-72
2024/04/11 10:01:31;;;;;;;7.47;3.60;;;;;;;12.11;96.91;102614.06;5541532;25;20072;-73
2024/04/11 10:04:08;;;;;;;32.47;13.43;;;;;;;12.10;100.00;102628.56;5533817;25;20002;-72
2024/04/11 10:06:38;;;;;;;7.32;3.30;;;;;;;12.38;97.62;102623.75;5514061;25;20010;-72
2024/04/11 10:09:13;;;;;;;6.47;3.08;;;;;;;12.57;96.53;102630.72;5511318;25;19994;-72
2024/04/11 10:11:43;;;;;;;8.10;3.50;;;;;;;12.68;93.71;102634.13;5528280;25;20457;-72
2024/04/11 10:14:17;;;;;;;8.82;3.20;;;;;;;12.76;93.93;102642.22;5539387;25;19997;-72
2024/04/11 10:16:48;;;;;;;5.30;3.38;;;;;;;12.54;94.91;102641.00;5540248;25;20000;-72
2024/04/11 10:19:26;;;;;;;7.15;3.00;;;;;;;12.65;93.69;102632.56;5505866;25;20437;-72
2024/04/11 10:21:52;;;;;;;4.07;2.92;;;;;;;12.66;94.41;102634.28;5523872;25;20016;-72
2024/04/11 10:24:23;;;;;;;7.95;3.03;;;;;;;12.78;95.32;102633.97;5507663;25;20005;-73
2024/04/11 10:26:50;;;;;;;8.27;3.42;;;;;;;12.83;94.31;102629.75;5533401;25;20001;-72
2024/04/11 10:29:26;;;;;;;6.43;3.42;;;;;;;12.83;94.68;102634.28;5445895;26;20009;-72
2024/04/11 10:31:56;;;;;;;6.13;3.55;;;;;;;12.76;94.01;102622.47;5466864;26;19995;-72
2024/04/11 10:34:37;;;;;;;7.43;3.72;;;;;;;12.71;95.11;102641.88;5448427;25;19999;-73
2024/04/11 10:37:07;;;;;;;7.00;3.50;;;;;;;12.81;95.66;102647.97;5464691;26;20002;-72
2024/04/11 10:39:35;;;;;;;7.18;3.83;;;;;;;12.75;96.42;102645.94;5462919;26;20010;-72
2024/04/11 10:42:07;;;;;;;7.85;3.35;;;;;;;12.95;95.59;102653.72;5458348;26;20044;-72
2024/04/11 10:44:36;;;;;;;6.75;3.60;;;;;;;12.74;97.55;102652.34;5451402;26;20011;-73
2024/04/11 10:47:07;;;;;;;8.95;4.03;;;;;;;12.85;97.60;102660.16;5450837;26;20011;-73
2024/04/11 10:49:38;;;;;;;9.55;4.03;;;;;;;12.94;97.79;102668.25;5479454;26;20100;-72
2024/04/11 10:52:05;;;;;;;7.43;3.88;;;;;;;13.09;96.52;102666.56;5458644;26;20079;-72
2024/04/11 10:54:31;;;;;;;6.15;4.07;;;;;;;12.52;100.00;102668.22;5452040;26;19999;-73
2024/04/11 10:56:57;;;;;;;8.27;4.15;;;;;;;12.56;100.00;102672.25;5433354;26;20090;-73
2024/04/11 10:59:26;;;;;;;8.50;4.15;;;;;;;12.80;98.89;102672.44;5446700;26;20010;-73
2024/04/11 11:02:09;;;;;;;5.97;4.00;;;;;;;12.99;98.33;102677.53;5424658;26;19998;-73
2024/04/11 11:04:36;;;;;;;8.13;4.20;;;;;;;12.97;97.84;102671.44;5450620;26;20003;-73
2024/04/11 11:07:11;;;;;;;6.88;3.80;;;;;;;12.82;98.77;102678.53;5428884;26;20012;-72
2024/04/11 11:09:42;;;;;;;8.90;4.30;;;;;;;13.07;98.11;102682.09;5444535;26;19995;-72
2024/04/11 11:12:11;;;;;;;8.40;4.30;;;;;;;13.27;96.69;102677.22;5412733;26;20453;-72
2024/04/11 11:14:36;;;;;;;8.35;4.15;;;;;;;13.02;97.38;102665.56;5443839;26;20034;-72
2024/04/11 11:17:02;;;;;;;7.28;4.07;;;;;;;12.92;99.99;102675.69;5443061;26;20294;-73
2024/04/11 11:19:34;;;;;;;9.93;4.57;;;;;;;13.27;97.08;102679.94;5457762;26;20017;-73
2024/04/11 11:21:59;;;;;;;5.97;4.05;;;;;;;13.22;96.24;102676.03;5445237;26;20002;-72
2024/04/11 11:24:27;;;;;;;9.98;4.35;;;;;;;13.26;96.56;102683.66;5455837;26;20463;-73
2024/04/11 11:26:59;;;;;;;9.43;4.45;;;;;;;13.42;95.88;102688.22;5450460;26;20412;-72
2024/04/11 11:29:28;;;;;;;7.88;4.65;;;;;;;13.43;95.49;102684.50;5438216;26;20041;-72
2024/04/11 11:32:01;;;;;;;8.48;4.78;;;;;;;13.14;96.66;102699.34;5405711;26;19999;-73
2024/04/11 11:34:35;;;;;;;9.70;4.78;;;;;;;13.00;98.74;102689.22;5404272;26;20018;-72
2024/04/11 11:37:00;;;;;;;10.93;4.60;;;;;;;13.16;97.42;102683.81;5437155;26;20006;-72
2024/04/11 11:39:35;;;;;;;8.15;4.75;;;;;;;13.15;98.61;102671.31;5419044;26;20451;-73
2024/04/11 11:42:13;;;;;;;8.23;4.45;;;;;;;13.12;99.35;102684.31;5430539;26;20354;-73
2024/04/11 11:47:33;;;;;;;8.45;5.00;;;;;;;13.32;98.60;102682.97;5444043;26;20014;-73
2024/04/11 11:50:16;;;;;;;7.65;4.80;;;;;;;13.39;98.61;102684.97;5422282;26;20002;-72
2024/04/11 11:52:43;;;;;;;9.52;5.55;;;;;;;13.28;98.23;102686.16;5420099;26;20006;-73
2024/04/11 11:55:08;;;;;;;10.52;5.45;;;;;;;13.25;98.08;102691.91;5465807;26;19995;-73
2024/04/11 11:57:40;;;;;;;8.88;5.65;;;;;;;13.18;99.24;102681.78;5443630;26;20463;-73
2024/04/11 12:00:26;;;;;;;8.27;5.50;;;;;;;13.38;99.44;102691.41;5442489;26;20011;-74
2024/04/11 12:02:54;;;;;;;8.45;5.60;;;;;;;13.41;98.46;102680.28;5442145;26;20006;-74
2024/04/11 12:05:25;;;;;;;7.25;5.07;;;;;;;13.43;97.74;102686.38;5457231;26;20050;-73
2024/04/11 12:08:05;;;;;;;9.43;5.85;;;;;;;13.28;100.00;102694.28;5444386;26;20461;-73
2024/04/11 12:13:18;;;;;;;12.00;5.88;;;;;;;13.14;100.00;102688.53;5442821;26;20037;-73
2024/04/11 12:15:45;;;;;;;8.30;5.78;;;;;;;13.00;100.00;102691.91;5438615;26;20015;-73
2024/04/11 12:18:12;;;;;;;11.13;5.80;;;;;;;13.36;100.00;102694.28;5437328;26;20034;-73
2024/04/11 12:20:39;;;;;;;11.90;6.13;;;;;;;13.36;99.04;102705.09;5431553;26;20011;-74
2024/04/11 12:23:06;;;;;;;9.30;6.00;;;;;;;13.33;99.75;102691.91;5445003;26;20035;-73
2024/04/11 12:25:32;;;;;;;10.52;6.00;;;;;;;12.98;100.00;102696.66;5425557;26;20450;-74
2024/04/11 12:27:58;;;;;;;12.00;5.78;;;;;;;13.09;100.00;102692.78;5442684;26;19999;-73
2024/04/11 12:30:24;;;;;;;8.80;5.97;;;;;;;13.27;100.00;102695.28;5441481;26;20005;-73
2024/04/11 12:32:49;;;;;;;9.13;5.75;;;;;;;13.27;100.00;102700.69;5442149;26;20442;-73
2024/04/11 12:35:17;;;;;;;8.80;6.28;;;;;;;13.27;100.00;102700.69;5416281;26;19998;-73